KSJT/SJT METAR and TAF weather

Enter ICAO airport designator
Station Type Date Time Source
KSJT METAR 2020/09/26 23:51 UTC NOAA

KSJT 262351Z 18007KT 10SM CLR 31/17 A2979 RMK AO2 SLP065 T03060167 10328 20289 56008


Station Type Date Time Source
KSJT Decoded METAR 2020/09/26 23:51 UTC NOAA

MATHIS FIELD, TX, United States (KSJT) 31-21N 100-30W 581M
Sep 26, 2020 - 07:51 PM EDT / 2020.09.26 2351 UTC
Wind: from the S (180 degrees) at 8 MPH (7 KT):0
Visibility: 10 mile(s):0
Sky conditions: clear
Temperature: 87.1 F (30.6 C)
Dew Point: 62.1 F (16.7 C)
Relative Humidity: 43%
Pressure (altimeter): 29.79 in. Hg (1008 hPa)
Pressure tendency: 0.02 inches (0.8 hPa) lower than three hours ago
ob: KSJT 262351Z 18007KT 10SM CLR 31/17 A2979 RMK AO2 SLP065 T03060167 10328 20289 56008
cycle: 0

Station Type Date Time Source
KSJT TAF 2020/09/26 18:39 UTC NOAA

TAF KSJT 261737Z 2618/2718 19014G20KT P6SM SKC
FM270000 18010KT P6SM SKC
FM270900 18013G20KT P6SM SKC

Example: see airport list